Time;durP1;ratioP1;P1;durP2;ratioP2;P2;SDS_P1;SDS_P2;PMS_P1;PMS_P2;Temp;Humidity;BMP_temperature;BMP_pressure;BME280_temperature;BME280_humidity;BME280_pressure;Samples;Min_cycle;Max_cycle;Signal;HPM_P1;HPM_P2
2022/11/29 00:02:10;;;;;;;24.40;6.95;;;;;;;2.45;100.00;100597.13;6196196;28;20502;-77
2022/11/29 00:05:13;;;;;;;12.30;7.40;;;;;;;2.37;100.00;100590.41;6194585;28;20072;-77
2022/11/29 00:08:14;;;;;;;14.18;6.55;;;;;;;2.33;100.00;100586.19;6195931;28;20121;-77
2022/11/29 00:12:11;;;;;;;14.15;6.80;;;;;;;2.23;100.00;100579.50;6196295;28;20482;-78
2022/11/29 00:14:39;;;;;;;9.73;5.80;;;;;;;2.13;100.00;100583.94;6197046;28;20474;-78
2022/11/29 00:17:40;;;;;;;12.73;6.70;;;;;;;1.99;100.00;100576.47;6195577;28;20045;-78
2022/11/29 00:20:40;;;;;;;20.50;8.20;;;;;;;1.92;100.00;100582.59;6195300;28;20038;-78
2022/11/29 00:23:41;;;;;;;17.27;6.90;;;;;;;1.91;100.00;100585.19;6195317;28;20085;-74
2022/11/29 00:26:42;;;;;;;10.73;6.63;;;;;;;1.81;100.00;100584.50;6196362;28;20077;-74
2022/11/29 00:29:43;;;;;;;11.98;6.40;;;;;;;1.84;100.00;100593.91;6194982;28;20049;-77
2022/11/29 00:32:43;;;;;;;18.00;7.20;;;;;;;1.78;100.00;100589.72;6195317;28;20475;-77
2022/11/29 00:35:44;;;;;;;22.70;8.20;;;;;;;1.72;100.00;100579.50;6195530;28;20474;-77
2022/11/29 00:38:44;;;;;;;16.88;7.60;;;;;;;1.72;100.00;100577.78;6195052;28;20084;-77
2022/11/29 00:41:45;;;;;;;17.85;7.38;;;;;;;1.70;100.00;100578.69;6196086;28;20076;-77
2022/11/29 00:44:46;;;;;;;19.45;7.70;;;;;;;1.68;100.00;100583.00;6195910;28;20050;-73
2022/11/29 00:47:46;;;;;;;13.90;5.85;;;;;;;1.67;100.00;100574.44;6194006;28;20053;-74
2022/11/29 00:50:47;;;;;;;12.02;6.07;;;;;;;1.70;100.00;100576.13;6195885;28;20046;-73
2022/11/29 00:53:48;;;;;;;9.68;5.63;;;;;;;1.69;100.00;100579.53;6199614;28;20049;-73
2022/11/29 00:56:48;;;;;;;15.35;6.03;;;;;;;1.66;100.00;100580.44;6210454;28;20104;-73
2022/11/29 00:59:49;;;;;;;12.65;6.32;;;;;;;1.63;100.00;100579.66;6204343;28;20073;-74
2022/11/29 01:02:52;;;;;;;16.63;6.88;;;;;;;1.63;100.00;100584.78;6196852;28;20058;-78
2022/11/29 01:06:00;;;;;;;15.02;7.35;;;;;;;1.63;100.00;100572.81;6295404;28;20047;-77
2022/11/29 01:09:01;;;;;;;16.85;5.97;;;;;;;1.63;100.00;100579.66;6194684;28;20482;-77
2022/11/29 01:12:04;;;;;;;12.20;6.13;;;;;;;1.63;100.00;100577.06;6194536;28;20118;-77
2022/11/29 01:15:14;;;;;;;11.18;5.70;;;;;;;1.61;100.00;100577.97;6193379;28;20046;-73
2022/11/29 01:18:15;;;;;;;13.38;6.03;;;;;;;1.56;100.00;100572.03;6194560;28;20463;-73
2022/11/29 01:21:18;;;;;;;16.15;6.88;;;;;;;1.41;100.00;100569.69;6278649;28;20051;-74
2022/11/29 01:24:21;;;;;;;12.38;5.93;;;;;;;1.54;100.00;100572.94;6194289;28;20038;-77
2022/11/29 01:27:21;;;;;;;11.15;5.13;;;;;;;1.51;100.00;100576.41;6194453;28;20099;-78
2022/11/29 01:30:24;;;;;;;15.18;6.28;;;;;;;1.50;100.00;100563.56;6200001;28;20124;-77
2022/11/29 01:33:25;;;;;;;15.73;5.70;;;;;;;1.50;100.00;100568.72;6217464;28;20053;-74
2022/11/29 01:36:27;;;;;;;9.32;6.50;;;;;;;1.47;100.00;100567.03;6218508;28;20106;-73
2022/11/29 01:39:28;;;;;;;17.75;5.88;;;;;;;1.40;100.00;100571.44;6217277;28;20045;-74
2022/11/29 01:42:28;;;;;;;10.43;6.20;;;;;;;1.34;100.00;100568.06;6218402;28;20448;-77
2022/11/29 01:45:36;;;;;;;20.65;6.63;;;;;;;1.32;100.00;100551.81;6218284;28;20038;-77
2022/11/29 01:48:37;;;;;;;11.55;6.72;;;;;;;1.35;100.00;100555.22;6217101;28;20042;-78
2022/11/29 01:51:43;;;;;;;13.48;6.97;;;;;;;1.22;100.00;100560.56;6217235;28;20084;-77
2022/11/29 01:54:47;;;;;;;11.10;5.53;;;;;;;1.32;100.00;100569.81;6218356;28;20046;-77
2022/11/29 01:57:48;;;;;;;18.40;6.82;;;;;;;1.28;100.00;100552.78;6216900;28;20057;-77
2022/11/29 02:00:48;;;;;;;15.02;5.95;;;;;;;1.32;100.00;100549.25;6220750;28;20390;-73
2022/11/29 02:03:49;;;;;;;11.23;5.65;;;;;;;1.30;100.00;100557.00;6221160;28;20038;-77
2022/11/29 02:06:50;;;;;;;13.13;6.35;;;;;;;1.23;100.00;100555.38;6221010;28;20451;-73
2022/11/29 02:09:50;;;;;;;7.97;4.55;;;;;;;1.37;100.00;100555.19;6222428;28;20042;-73
2022/11/29 02:13:56;;;;;;;9.27;5.03;;;;;;;1.38;100.00;100554.31;6222337;28;20496;-77
2022/11/29 02:17:11;;;;;;;9.15;4.45;;;;;;;1.30;100.00;100551.03;6297472;28;20052;-73
2022/11/29 02:20:39;;;;;;;11.65;6.20;;;;;;;1.30;100.00;100553.59;6278281;28;20070;-73
2022/11/29 02:23:42;;;;;;;12.00;5.30;;;;;;;1.35;100.00;100557.78;6220955;28;20042;-77
2022/11/29 02:26:55;;;;;;;15.10;4.95;;;;;;;1.32;100.00;100552.69;6212939;28;20050;-74
2022/11/29 02:30:02;;;;;;;8.15;4.35;;;;;;;1.27;100.00;100545.91;6196644;28;20437;-73
2022/11/29 02:33:03;;;;;;;6.80;4.70;;;;;;;1.31;100.00;100547.56;6196253;28;20050;-73
2022/11/29 02:36:07;;;;;;;16.38;6.70;;;;;;;1.23;100.00;100541.69;6197437;28;20091;-74
2022/11/29 02:39:38;;;;;;;10.13;5.03;;;;;;;1.18;100.00;100545.19;6196262;28;20046;-73
2022/11/29 02:43:02;;;;;;;11.40;5.28;;;;;;;1.09;100.00;100536.75;6197355;28;20042;-74
2022/11/29 02:46:09;;;;;;;9.20;4.85;;;;;;;1.09;100.00;100541.88;6197141;28;20043;-78
2022/11/29 02:49:26;;;;;;;8.98;4.13;;;;;;;1.14;100.00;100545.25;6196305;28;20046;-77
2022/11/29 02:52:46;;;;;;;16.10;5.05;;;;;;;1.19;100.00;100549.47;6197256;28;20042;-73
2022/11/29 02:55:56;;;;;;;10.93;5.32;;;;;;;1.12;100.00;100550.41;6195941;28;20095;-74
2022/11/29 02:59:13;;;;;;;11.65;6.15;;;;;;;1.06;100.00;100549.66;6197087;28;20519;-77
2022/11/29 03:02:30;;;;;;;8.85;4.88;;;;;;;1.07;100.00;100556.47;6196887;28;20055;-77
2022/11/29 03:06:01;;;;;;;9.48;5.18;;;;;;;0.99;100.00;100554.03;6195753;28;20459;-77
2022/11/29 03:09:09;;;;;;;10.63;5.10;;;;;;;1.02;100.00;100553.97;6195884;28;20042;-74
2022/11/29 03:12:23;;;;;;;10.50;5.45;;;;;;;0.98;100.00;100558.31;6179449;28;20058;-73
2022/11/29 03:15:27;;;;;;;9.43;4.75;;;;;;;0.98;100.00;100557.47;6196706;28;20049;-73
2022/11/29 03:18:50;;;;;;;7.68;5.35;;;;;;;1.02;100.00;100548.84;6196813;28;20049;-73
2022/11/29 03:22:11;;;;;;;14.88;6.35;;;;;;;1.04;100.00;100548.81;6195481;28;20107;-73
2022/11/29 03:26:03;;;;;;;13.05;4.95;;;;;;;0.97;100.00;100546.34;6195304;28;20048;-77
2022/11/29 03:29:32;;;;;;;7.97;4.20;;;;;;;0.94;100.00;100548.94;6262529;28;20143;-74
2022/11/29 03:32:51;;;;;;;9.02;4.93;;;;;;;0.96;100.00;100548.91;6196495;28;20121;-77
2022/11/29 03:36:10;;;;;;;8.13;3.95;;;;;;;0.99;100.00;100559.19;6196372;28;20050;-74
2022/11/29 03:39:18;;;;;;;10.52;5.72;;;;;;;1.01;100.00;100549.72;6196278;28;20045;-78
2022/11/29 03:42:40;;;;;;;9.88;5.38;;;;;;;1.07;100.00;100539.34;6195136;28;20053;-78
2022/11/29 03:46:18;;;;;;;8.23;4.68;;;;;;;1.08;100.00;100547.91;6195076;28;20039;-77
2022/11/29 03:49:27;;;;;;;9.45;6.00;;;;;;;1.13;100.00;100548.69;6205432;28;20063;-77
2022/11/29 03:52:43;;;;;;;18.98;5.90;;;;;;;1.16;100.00;100546.91;6194856;28;20046;-74
2022/11/29 03:55:44;;;;;;;9.80;4.68;;;;;;;1.18;100.00;100550.31;6194826;28;20077;-78
2022/11/29 03:59:11;;;;;;;6.82;4.75;;;;;;;1.14;100.00;100547.81;6196218;28;20494;-77
2022/11/29 04:02:39;;;;;;;13.10;5.03;;;;;;;1.07;100.00;100549.63;6195836;28;20506;-77
2022/11/29 04:05:52;;;;;;;10.55;5.63;;;;;;;1.09;100.00;100549.59;6195786;28;20042;-74
2022/11/29 04:08:59;;;;;;;11.43;6.15;;;;;;;1.11;100.00;100556.44;6194440;28;20505;-77
2022/11/29 04:12:15;;;;;;;9.68;5.85;;;;;;;1.05;100.00;100550.50;6194808;28;20042;-77
2022/11/29 04:15:56;;;;;;;13.38;6.82;;;;;;;1.05;100.00;100553.06;6194498;28;20050;-78
2022/11/29 04:19:03;;;;;;;10.52;5.50;;;;;;;0.92;100.00;100562.69;6216919;28;20502;-77
2022/11/29 04:22:19;;;;;;;8.73;5.43;;;;;;;0.94;100.00;100563.50;6205299;28;20092;-78
2022/11/29 04:25:34;;;;;;;8.52;5.18;;;;;;;0.92;100.00;100557.53;6218315;28;20096;-77
2022/11/29 04:29:05;;;;;;;10.07;5.65;;;;;;;0.84;100.00;100554.22;6203043;28;20539;-77
2022/11/29 04:32:18;;;;;;;12.25;5.13;;;;;;;0.82;100.00;100559.38;6196165;28;20054;-73
2022/11/29 04:35:41;;;;;;;7.22;4.63;;;;;;;0.83;100.00;100570.53;6316585;27;20050;-73
2022/11/29 04:38:51;;;;;;;11.45;6.72;;;;;;;0.80;100.00;100558.53;6219062;28;20050;-73
2022/11/29 04:42:24;;;;;;;5.90;4.13;;;;;;;0.79;100.00;100554.28;6220167;28;20475;-73
2022/11/29 04:45:44;;;;;;;;;;;;;;;0.77;100.00;100564.56;6322420;27;20061;-73
2022/11/29 04:49:03;;;;;;;9.20;4.20;;;;;;;0.66;100.00;100563.00;6217418;28;19925;-73
2022/11/29 04:52:31;;;;;;;10.68;4.95;;;;;;;0.68;100.00;100564.72;6207625;28;20115;-77
2022/11/29 04:55:53;;;;;;;7.85;4.50;;;;;;;0.59;100.00;100563.06;6218915;28;20053;-77
2022/11/29 04:58:58;;;;;;;13.35;5.57;;;;;;;0.57;100.00;100561.41;6197233;28;20057;-78
2022/11/29 05:02:08;;;;;;;15.07;6.10;;;;;;;0.54;100.00;100559.72;6214857;28;20371;-77
2022/11/29 05:05:34;;;;;;;12.15;5.90;;;;;;;0.55;100.00;100558.84;6219787;28;20074;-73
2022/11/29 05:08:45;;;;;;;16.48;8.20;;;;;;;0.54;100.00;100566.59;6206147;28;20059;-73
2022/11/29 05:11:49;;;;;;;18.63;8.02;;;;;;;0.49;100.00;100563.22;6194065;28;20536;-73
2022/11/29 05:15:11;;;;;;;9.45;6.28;;;;;;;0.53;100.00;100563.16;6194755;28;20046;-77
2022/11/29 05:18:24;;;;;;;17.03;5.90;;;;;;;0.54;100.00;100567.44;6194090;28;20449;-78
2022/11/29 05:21:38;;;;;;;;;;;;;;;0.57;100.00;100563.97;6198731;28;20299;-77
2022/11/29 05:24:52;;;;;;;12.50;4.32;;;;;;;0.53;100.00;100560.56;6218456;28;20377;-77
2022/11/29 05:28:32;;;;;;;22.02;9.05;;;;;;;0.52;100.00;100566.59;6218460;28;20057;-77
2022/11/29 05:32:03;;;;;;;47.83;18.48;;;;;;;0.48;100.00;100571.78;6197741;28;20564;-77
2022/11/29 05:35:42;;;;;;;58.38;24.25;;;;;;;0.45;100.00;100575.22;6214011;28;20126;-77
2022/11/29 05:39:14;;;;;;;30.85;18.73;;;;;;;0.38;100.00;100571.88;6179999;28;20073;-77
2022/11/29 05:42:49;;;;;;;21.20;12.82;;;;;;;0.33;100.00;100576.22;6193091;28;20122;-77
2022/11/29 05:46:11;;;;;;;15.90;7.63;;;;;;;0.33;100.00;100577.91;6192862;28;20051;-73
2022/11/29 05:49:48;;;;;;;9.60;6.90;;;;;;;0.33;100.00;100576.22;6194343;28;20091;-73
2022/11/29 05:52:58;;;;;;;13.70;6.40;;;;;;;0.28;100.00;100569.44;6194162;28;20453;-73
2022/11/29 05:56:27;;;;;;;13.25;6.60;;;;;;;0.30;100.00;100576.25;6192674;28;20050;-73
2022/11/29 05:59:30;;;;;;;8.07;4.55;;;;;;;0.32;100.00;100573.66;6193728;28;20539;-73
2022/11/29 06:02:54;;;;;;;10.10;6.10;;;;;;;0.35;100.00;100577.06;6192525;28;20156;-73
2022/11/29 06:05:55;;;;;;;12.00;5.95;;;;;;;0.36;100.00;100581.31;6210981;28;20220;-73
2022/11/29 06:09:11;;;;;;;20.40;7.80;;;;;;;0.37;100.00;100582.16;6213833;28;20034;-73
2022/11/29 06:12:17;;;;;;;14.95;6.07;;;;;;;0.36;100.00;100577.91;6216286;28;20042;-73
2022/11/29 06:15:33;;;;;;;14.80;5.72;;;;;;;0.38;100.00;100579.56;6217965;28;20045;-73
2022/11/29 06:19:04;;;;;;;10.05;5.88;;;;;;;0.45;100.00;100576.94;6200528;28;20577;-73
2022/11/29 06:22:19;;;;;;;15.95;6.53;;;;;;;0.44;100.00;100585.53;6217896;28;20046;-73
2022/11/29 06:25:47;;;;;;;12.15;6.18;;;;;;;0.55;100.00;100584.53;6200109;28;20050;-72
2022/11/29 06:29:00;;;;;;;9.57;5.63;;;;;;;0.56;100.00;100590.53;6205336;28;20042;-73
2022/11/29 06:32:42;;;;;;;14.90;6.68;;;;;;;0.65;100.00;100592.13;6204783;28;20039;-73
2022/11/29 06:35:50;;;;;;;21.20;8.23;;;;;;;0.65;100.00;100584.44;6222223;28;20506;-74
2022/11/29 06:38:51;;;;;;;19.15;8.48;;;;;;;0.69;100.00;100575.81;6192025;28;20038;-73
2022/11/29 06:41:52;;;;;;;20.55;9.45;;;;;;;0.72;100.00;100578.34;6193246;28;20140;-73
2022/11/29 06:44:53;;;;;;;16.67;7.40;;;;;;;0.76;100.00;100585.13;6176663;28;20049;-73
2022/11/29 06:48:01;;;;;;;10.18;5.97;;;;;;;0.84;100.00;100585.06;6196030;28;20038;-73
2022/11/29 06:51:11;;;;;;;14.52;7.90;;;;;;;0.85;100.00;100587.59;6197367;28;20402;-73
2022/11/29 06:54:42;;;;;;;27.98;11.50;;;;;;;0.98;100.00;100581.44;6198084;28;20383;-73
2022/11/29 06:57:49;;;;;;;20.15;7.90;;;;;;;1.08;100.00;100592.44;6297893;28;20046;-73
2022/11/29 07:01:07;;;;;;;18.30;8.73;;;;;;;1.15;100.00;100588.06;6216715;28;20091;-74
2022/11/29 07:04:28;;;;;;;22.00;6.43;;;;;;;1.19;100.00;100594.88;6220344;28;20038;-75
2022/11/29 07:07:30;;;;;;;16.85;7.68;;;;;;;1.23;100.00;100596.53;6220855;28;20042;-73
2022/11/29 07:10:35;;;;;;;10.98;5.43;;;;;;;1.35;100.00;100608.38;6220707;28;20347;-74
2022/11/29 07:13:36;;;;;;;15.07;6.78;;;;;;;1.33;100.00;100605.81;6220722;28;20046;-74
2022/11/29 07:17:00;;;;;;;16.33;6.63;;;;;;;1.46;100.00;100597.91;6219458;28;20050;-74
2022/11/29 07:20:14;;;;;;;14.65;7.63;;;;;;;1.55;100.00;100605.50;6219404;28;20057;-74
2022/11/29 07:23:34;;;;;;;12.95;7.22;;;;;;;1.67;100.00;100601.88;6215404;28;20092;-74
2022/11/29 07:27:17;;;;;;;17.55;6.80;;;;;;;1.69;100.00;100605.28;6207115;28;20045;-74
2022/11/29 07:30:19;;;;;;;;;;;;;;;1.84;100.00;100599.91;6207779;28;20038;-74
2022/11/29 07:33:40;;;;;;;4.40;3.63;;;;;;;1.84;100.00;100592.19;6210183;28;19921;-73
2022/11/29 07:37:00;;;;;;;11.15;5.40;;;;;;;1.77;100.00;100599.16;6216712;28;20046;-73
2022/11/29 07:40:09;;;;;;;11.70;5.60;;;;;;;1.91;100.00;100598.91;6219202;28;20056;-73
2022/11/29 07:43:22;;;;;;;12.18;5.57;;;;;;;2.04;100.00;100606.44;6202960;28;20088;-73
2022/11/29 07:46:24;;;;;;;;;;;;;;;1.90;100.00;100598.97;6219514;28;20049;-76
2022/11/29 07:49:25;;;;;;;9.00;5.22;;;;;;;2.03;100.00;100594.44;6207803;28;19925;-76
2022/11/29 07:52:25;;;;;;;16.58;6.57;;;;;;;2.29;100.00;100596.56;6203281;28;20042;-77
2022/11/29 07:55:26;;;;;;;8.63;4.50;;;;;;;2.47;100.00;100603.97;6207208;28;20565;-76
2022/11/29 07:58:27;;;;;;;11.57;6.10;;;;;;;2.62;100.00;100601.06;6304775;27;20049;-76
2022/11/29 08:01:28;;;;;;;11.73;7.85;;;;;;;2.85;100.00;100609.22;6204984;28;20061;-76
2022/11/29 08:04:28;;;;;;;15.82;6.95;;;;;;;2.96;100.00;100609.84;6206460;28;20069;-76
2022/11/29 08:07:29;;;;;;;15.05;7.13;;;;;;;3.06;100.00;100595.88;6203278;28;20042;-76
2022/11/29 08:10:30;;;;;;;10.05;6.13;;;;;;;3.27;100.00;100604.88;6195753;28;20459;-74
2022/11/29 08:13:31;;;;;;;9.32;6.38;;;;;;;3.39;100.00;100593.44;6213472;28;20128;-74
2022/11/29 08:16:32;;;;;;;12.25;6.65;;;;;;;3.53;100.00;100590.56;6205488;28;20050;-74
2022/11/29 08:19:32;;;;;;;12.50;7.35;;;;;;;3.68;100.00;100592.75;6195651;28;20145;-73
2022/11/29 08:22:33;;;;;;;29.33;8.23;;;;;;;3.82;100.00;100588.13;6194511;28;20407;-74
2022/11/29 08:25:34;;;;;;;13.07;6.38;;;;;;;3.88;100.00;100591.44;6205253;28;20116;-74
2022/11/29 08:28:35;;;;;;;12.05;7.35;;;;;;;4.09;100.00;100592.63;6218528;28;20042;-77
2022/11/29 08:31:38;;;;;;;17.13;7.20;;;;;;;4.35;100.00;100595.38;6219555;28;20042;-77
2022/11/29 08:34:38;;;;;;;15.18;7.80;;;;;;;4.51;100.00;100582.91;6202516;28;20498;-77
2022/11/29 08:37:39;;;;;;;16.42;7.22;;;;;;;4.21;100.00;100585.41;6195104;28;20042;-77
2022/11/29 08:40:39;;;;;;;20.52;7.90;;;;;;;4.39;100.00;100589.25;6195202;28;20066;-77
2022/11/29 08:43:41;;;;;;;18.58;7.22;;;;;;;4.37;100.00;100592.75;6195055;28;20045;-77
2022/11/29 08:50:13;;;;;;;10.85;6.55;;;;;;;4.17;100.00;100588.13;6195369;28;20043;-77
2022/11/29 08:56:35;;;;;;;13.85;5.80;;;;;;;4.48;100.00;100585.56;6201400;28;20132;-77
2022/11/29 08:59:36;;;;;;;11.07;5.90;;;;;;;4.55;100.00;100584.50;6218000;28;20513;-77
2022/11/29 09:02:37;;;;;;;9.10;5.35;;;;;;;4.67;100.00;100590.22;6193420;28;20059;-74
2022/11/29 09:05:38;;;;;;;10.35;6.40;;;;;;;4.90;100.00;100587.84;6194703;28;20042;-73
2022/11/29 09:08:42;;;;;;;21.77;7.82;;;;;;;5.31;100.00;100590.91;6214298;28;20514;-77
2022/11/29 09:11:43;;;;;;;13.15;7.63;;;;;;;5.34;98.09;100580.47;6209377;28;20510;-77
2022/11/29 09:14:44;;;;;;;23.57;7.70;;;;;;;5.56;97.06;100587.56;6198842;28;20078;-77
2022/11/29 09:17:45;;;;;;;17.55;7.75;;;;;;;5.37;95.67;100584.69;6191689;28;20048;-77
2022/11/29 09:20:45;;;;;;;12.52;6.30;;;;;;;5.69;95.67;100586.28;6194602;28;20099;-77
2022/11/29 09:23:46;;;;;;;15.18;7.35;;;;;;;5.59;93.89;100597.81;6193270;28;20115;-74
2022/11/29 09:26:48;;;;;;;12.15;6.55;;;;;;;5.85;96.68;100603.00;6193008;28;20057;-74
2022/11/29 09:29:49;;;;;;;12.05;6.53;;;;;;;5.94;95.25;100601.84;6193122;28;20041;-74
2022/11/29 09:32:49;;;;;;;12.10;6.63;;;;;;;6.30;91.48;100595.50;6194211;28;20070;-74
2022/11/29 09:35:50;;;;;;;9.98;6.25;;;;;;;6.31;92.63;100594.63;6194216;28;20046;-74
2022/11/29 09:38:53;;;;;;;11.60;6.57;;;;;;;6.59;89.36;100603.13;6193001;28;20042;-74
2022/11/29 09:42:08;;;;;;;15.90;7.13;;;;;;;6.52;86.56;100590.44;6176414;28;20050;-74
2022/11/29 09:45:17;;;;;;;20.48;8.85;;;;;;;6.65;90.18;100587.34;6192717;28;20039;-77
2022/11/29 09:48:26;;;;;;;12.52;6.68;;;;;;;6.72;89.35;100593.16;6194023;28;20406;-77
2022/11/29 09:51:33;;;;;;;14.77;6.40;;;;;;;6.88;89.19;100590.84;6193860;28;20043;-77
2022/11/29 09:54:46;;;;;;;18.45;8.55;;;;;;;6.97;86.19;100576.69;6194026;28;20091;-77
2022/11/29 09:57:48;;;;;;;;;;;;;;;6.62;87.27;100578.81;6194331;28;20046;-77
2022/11/29 10:00:59;;;;;;;14.82;6.65;;;;;;;6.98;89.32;100560.19;6195465;28;19944;-77
2022/11/29 10:04:14;;;;;;;11.43;5.20;;;;;;;7.09;84.08;100558.06;6192501;28;20111;-77
2022/11/29 10:07:32;;;;;;;13.43;6.43;;;;;;;7.00;87.73;100554.06;6204365;28;20070;-77
2022/11/29 10:10:41;;;;;;;13.88;7.60;;;;;;;6.99;85.13;100554.13;6208222;28;20050;-77
2022/11/29 10:13:50;;;;;;;18.52;8.20;;;;;;;7.29;86.15;100548.63;6195602;28;20077;-77
2022/11/29 10:17:27;;;;;;;12.88;6.60;;;;;;;7.57;83.45;100553.56;6200227;28;20042;-77
2022/11/29 10:20:31;;;;;;;11.43;6.60;;;;;;;7.36;80.31;100556.13;6224686;28;20054;-77
2022/11/29 10:23:41;;;;;;;16.15;8.30;;;;;;;7.43;80.33;100543.72;6210517;28;20038;-77
2022/11/29 10:26:42;;;;;;;16.67;7.82;;;;;;;7.76;81.13;100558.84;6186389;28;20050;-77
2022/11/29 10:29:43;;;;;;;13.07;7.25;;;;;;;7.95;80.24;100546.81;6199490;28;20103;-77
2022/11/29 10:32:47;;;;;;;14.05;7.38;;;;;;;7.96;77.92;100545.88;6203025;28;20049;-77
2022/11/29 10:35:53;;;;;;;14.10;6.80;;;;;;;8.15;77.25;100551.13;6206559;28;20499;-77
2022/11/29 10:39:02;;;;;;;17.40;7.43;;;;;;;8.23;78.22;100549.03;6206199;28;20046;-74
2022/11/29 10:42:47;;;;;;;14.13;7.90;;;;;;;8.28;77.66;100543.66;6204258;28;20042;-74
2022/11/29 10:45:28;;;;;;;10.98;6.63;;;;;;;8.39;76.11;100543.19;6196853;28;20486;-73
2022/11/29 10:48:32;;;;;;;18.25;6.95;;;;;;;8.21;73.28;100545.66;6200203;28;20039;-74
2022/11/29 10:51:33;;;;;;;11.70;6.65;;;;;;;8.53;74.17;100542.63;6196462;28;20425;-74
2022/11/29 10:54:42;;;;;;;13.32;6.45;;;;;;;8.34;74.33;100545.13;6200484;28;20039;-74
2022/11/29 10:58:08;;;;;;;13.45;5.88;;;;;;;8.63;75.05;100538.69;6200902;28;20046;-74
2022/11/29 11:01:13;;;;;;;15.15;6.28;;;;;;;8.64;73.26;100535.16;6201111;28;20042;-74
2022/11/29 11:04:23;;;;;;;12.82;7.05;;;;;;;8.75;73.74;100540.75;6207052;28;20121;-74
2022/11/29 11:07:34;;;;;;;14.45;7.88;;;;;;;8.88;71.58;100531.44;6195709;28;20051;-74
2022/11/29 11:10:35;;;;;;;11.98;6.60;;;;;;;8.74;71.51;100533.84;6281019;28;20054;-74
2022/11/29 11:13:38;;;;;;;9.38;5.40;;;;;;;8.74;71.78;100546.00;6195545;28;20551;-73
2022/11/29 11:16:38;;;;;;;;;;;;;;;8.58;72.81;100543.25;6196021;28;20053;-74
2022/11/29 11:19:39;;;;;;;12.60;6.30;;;;;;;8.45;73.89;100538.59;6196691;28;19925;-74
2022/11/29 11:22:40;;;;;;;16.98;7.57;;;;;;;8.45;83.90;100558.56;6196495;28;20066;-74
2022/11/29 11:25:40;;;;;;;18.52;8.27;;;;;;;8.35;87.66;100544.25;6179227;28;20050;-74
2022/11/29 11:28:59;;;;;;;14.05;7.82;;;;;;;8.07;92.98;100555.81;6195147;28;20482;-74
2022/11/29 11:32:00;;;;;;;14.52;7.85;;;;;;;7.78;94.24;100559.63;6194920;28;20050;-74
2022/11/29 11:35:01;;;;;;;12.55;7.95;;;;;;;7.43;97.51;100561.91;6195136;28;20100;-74
2022/11/29 11:38:02;;;;;;;12.57;7.15;;;;;;;6.68;100.00;100572.56;6271491;28;20058;-73
2022/11/29 11:41:16;;;;;;;11.57;7.30;;;;;;;6.33;100.00;100572.94;6193428;28;20085;-73
2022/11/29 11:44:49;;;;;;;12.20;6.78;;;;;;;6.19;100.00;100577.75;6193447;28;20125;-73
2022/11/29 11:47:53;;;;;;;20.88;7.80;;;;;;;5.94;100.00;100575.97;6196236;28;20410;-73
2022/11/29 11:50:58;;;;;;;21.40;8.80;;;;;;;5.55;100.00;100578.09;6196444;28;20039;-73
2022/11/29 11:53:59;;;;;;;15.15;8.35;;;;;;;5.49;100.00;100570.53;6195775;28;20043;-73
2022/11/29 11:57:00;;;;;;;14.07;8.25;;;;;;;5.61;100.00;100565.81;6196126;28;20050;-73
2022/11/29 12:00:00;;;;;;;25.23;11.35;;;;;;;5.75;100.00;100569.72;6195980;28;20554;-73
2022/11/29 12:03:01;;;;;;;17.63;9.20;;;;;;;5.69;100.00;100578.50;6194769;28;20054;-73
2022/11/29 12:06:27;;;;;;;15.00;8.27;;;;;;;5.47;100.00;100577.50;6178373;28;20093;-73
2022/11/29 12:09:41;;;;;;;15.77;9.98;;;;;;;5.57;100.00;100571.97;6194379;28;20043;-74
2022/11/29 12:12:49;;;;;;;13.13;7.43;;;;;;;5.40;100.00;100579.44;6178953;28;20059;-74
2022/11/29 12:15:50;;;;;;;;;;;;;;;5.15;100.00;100574.19;6178737;28;20046;-74
2022/11/29 12:19:11;;;;;;;10.10;5.75;;;;;;;5.17;100.00;100562.88;6296774;28;20385;-76
2022/11/29 12:22:18;;;;;;;17.02;9.32;;;;;;;5.36;100.00;100572.66;6195484;28;20046;-73
2022/11/29 12:25:25;;;;;;;21.25;9.70;;;;;;;5.41;100.00;100557.84;6210053;28;20038;-73
2022/11/29 12:28:32;;;;;;;16.30;9.02;;;;;;;5.37;100.00;100564.84;6214201;28;20410;-73
2022/11/29 12:31:38;;;;;;;12.95;7.82;;;;;;;5.54;100.00;100569.50;6194245;28;20043;-73
2022/11/29 12:35:05;;;;;;;12.98;7.68;;;;;;;5.48;100.00;100563.66;6198250;28;20046;-74
2022/11/29 12:38:08;;;;;;;17.67;8.50;;;;;;;5.44;100.00;100566.34;6219421;28;20171;-73
2022/11/29 12:41:28;;;;;;;18.67;9.68;;;;;;;5.37;100.00;100564.00;6217988;28;20548;-72
2022/11/29 12:44:43;;;;;;;19.23;10.35;;;;;;;5.46;100.00;100563.72;6200831;28;20064;-73
2022/11/29 12:48:03;;;;;;;26.80;11.93;;;;;;;5.44;100.00;100553.41;6201825;28;20054;-73
2022/11/29 12:51:13;;;;;;;20.83;12.48;;;;;;;5.51;100.00;100555.81;6217969;28;20057;-73
2022/11/29 12:54:23;;;;;;;20.30;11.98;;;;;;;5.47;100.00;100549.88;6217840;28;20053;-73
2022/11/29 12:57:43;;;;;;;24.58;11.65;;;;;;;5.39;100.00;100551.84;6219091;28;20046;-73
2022/11/29 13:01:23;;;;;;;19.30;11.55;;;;;;;5.28;100.00;100552.19;6217644;28;20041;-73
2022/11/29 13:04:45;;;;;;;18.48;10.85;;;;;;;5.25;100.00;100547.13;6200880;28;20058;-73
2022/11/29 13:08:04;;;;;;;23.77;11.63;;;;;;;5.33;100.00;100547.72;6204009;28;20058;-73
2022/11/29 13:11:18;;;;;;;31.67;17.05;;;;;;;5.60;100.00;100550.31;6195603;28;20292;-73
2022/11/29 13:14:31;;;;;;;24.77;13.98;;;;;;;5.48;100.00;100536.06;6201973;28;20565;-73
2022/11/29 13:17:56;;;;;;;19.00;11.32;;;;;;;5.64;100.00;100550.19;6217405;28;20054;-73
2022/11/29 13:21:09;;;;;;;23.65;11.98;;;;;;;5.85;100.00;100548.63;6212598;28;20053;-74
2022/11/29 13:24:23;;;;;;;22.17;11.75;;;;;;;5.88;100.00;100550.25;6201508;28;20065;-74
2022/11/29 13:27:41;;;;;;;27.65;13.00;;;;;;;5.81;100.00;100543.63;6208058;28;20546;-73
2022/11/29 13:30:42;;;;;;;28.38;14.07;;;;;;;5.87;100.00;100546.00;6218433;28;20152;-73
2022/11/29 13:33:52;;;;;;;31.13;15.63;;;;;;;5.80;100.00;100541.91;6217363;28;20513;-73
2022/11/29 13:37:05;;;;;;;26.55;14.55;;;;;;;5.81;100.00;100548.78;6218436;28;20413;-73
2022/11/29 13:40:22;;;;;;;25.73;12.25;;;;;;;5.92;100.00;100548.41;6200714;28;20105;-73
2022/11/29 13:43:30;;;;;;;20.77;12.13;;;;;;;6.02;100.00;100549.84;6218398;28;20064;-73
2022/11/29 13:47:09;;;;;;;26.33;14.50;;;;;;;6.13;100.00;100555.47;6216951;28;20049;-73
2022/11/29 13:50:31;;;;;;;23.10;12.02;;;;;;;6.21;100.00;100555.22;6217580;28;20058;-74
2022/11/29 13:53:42;;;;;;;35.60;15.77;;;;;;;6.22;100.00;100560.34;6214998;28;20046;-73
2022/11/29 13:56:45;;;;;;;26.40;14.95;;;;;;;6.12;100.00;100553.81;6190864;28;20132;-73
2022/11/29 13:59:48;;;;;;;34.47;17.70;;;;;;;6.09;100.00;100558.22;6197926;28;20428;-75
2022/11/29 14:02:49;;;;;;;36.53;18.75;;;;;;;6.03;100.00;100560.16;6209640;28;20057;-75
2022/11/29 14:06:00;;;;;;;40.08;22.17;;;;;;;5.98;100.00;100556.03;6201658;28;20046;-73
2022/11/29 14:09:24;;;;;;;39.15;21.52;;;;;;;5.86;100.00;100558.06;6215600;28;20085;-74
2022/11/29 14:12:38;;;;;;;40.95;20.65;;;;;;;5.83;100.00;100559.94;6220905;28;20391;-74
2022/11/29 14:15:40;;;;;;;27.13;16.63;;;;;;;5.77;100.00;100570.50;6212644;28;20054;-74
2022/11/29 14:18:41;;;;;;;30.77;17.90;;;;;;;5.72;100.00;100570.63;6211452;28;20395;-73
2022/11/29 14:22:06;;;;;;;28.63;15.23;;;;;;;5.57;100.00;100566.81;6198462;28;20046;-74
2022/11/29 14:25:24;;;;;;;37.22;17.55;;;;;;;5.45;100.00;100562.00;6199599;28;20068;-75
2022/11/29 14:28:31;;;;;;;28.95;16.73;;;;;;;5.36;100.00;100576.09;6199111;28;20197;-75
2022/11/29 14:31:50;;;;;;;32.78;17.83;;;;;;;5.22;100.00;100575.69;6206721;28;20129;-75
2022/11/29 14:35:02;;;;;;;34.63;19.98;;;;;;;5.10;100.00;100582.06;6220065;28;20107;-75
2022/11/29 14:38:23;;;;;;;29.85;16.25;;;;;;;4.98;100.00;100582.44;6219825;28;20498;-75
2022/11/29 14:41:32;;;;;;;31.02;17.95;;;;;;;4.90;100.00;100585.25;6323104;27;20099;-75
2022/11/29 14:44:43;;;;;;;30.60;16.13;;;;;;;4.76;100.00;100583.06;6220705;28;20038;-75
2022/11/29 14:47:48;;;;;;;37.20;17.00;;;;;;;4.69;100.00;100585.84;6220896;28;20410;-74